sensor_id;sensor_type;location;lat;lon;timestamp;temperature;humidity
52859;DHT22;38721;53.098;6.596;2023-03-01T00:01:59;-0.90;99.90
52859;DHT22;38721;53.098;6.596;2023-03-01T00:04:25;-0.90;99.90
52859;DHT22;38721;53.098;6.596;2023-03-01T00:06:51;-1.00;99.90
52859;DHT22;38721;53.098;6.596;2023-03-01T00:09:17;-1.10;99.90
52859;DHT22;38721;53.098;6.596;2023-03-01T00:11:43;-1.20;99.90
52859;DHT22;38721;53.098;6.596;2023-03-01T00:14:09;-1.00;99.90
52859;DHT22;38721;53.098;6.596;2023-03-01T00:16:40;-1.10;99.90
52859;DHT22;38721;53.098;6.596;2023-03-01T00:19:08;-1.00;99.90
52859;DHT22;38721;53.098;6.596;2023-03-01T00:21:35;-1.10;99.90
52859;DHT22;38721;53.098;6.596;2023-03-01T00:24:01;-1.00;99.90
52859;DHT22;38721;53.098;6.596;2023-03-01T00:26:27;-1.10;99.90
52859;DHT22;38721;53.098;6.596;2023-03-01T00:28:54;-1.00;99.90
52859;DHT22;38721;53.098;6.596;2023-03-01T00:31:26;-1.00;99.90
52859;DHT22;38721;53.098;6.596;2023-03-01T00:33:53;-1.10;99.90
52859;DHT22;38721;53.098;6.596;2023-03-01T00:36:23;-1.00;99.90
52859;DHT22;38721;53.098;6.596;2023-03-01T00:38:49;-1.00;99.90
52859;DHT22;38721;53.098;6.596;2023-03-01T00:41:16;-1.10;99.90
52859;DHT22;38721;53.098;6.596;2023-03-01T00:43:44;-1.10;99.90
52859;DHT22;38721;53.098;6.596;2023-03-01T00:46:15;-1.10;99.90
52859;DHT22;38721;53.098;6.596;2023-03-01T00:48:41;-1.10;99.90
52859;DHT22;38721;53.098;6.596;2023-03-01T00:51:12;-1.30;99.90
52859;DHT22;38721;53.098;6.596;2023-03-01T00:53:38;-1.20;99.90
52859;DHT22;38721;53.098;6.596;2023-03-01T00:56:05;-1.20;99.90
52859;DHT22;38721;53.098;6.596;2023-03-01T00:58:32;-1.20;99.90
52859;DHT22;38721;53.098;6.596;2023-03-01T01:00:58;-1.30;99.90
52859;DHT22;38721;53.098;6.596;2023-03-01T01:03:24;-1.40;99.90
52859;DHT22;38721;53.098;6.596;2023-03-01T01:05:53;-1.40;99.90
52859;DHT22;38721;53.098;6.596;2023-03-01T01:08:20;-1.40;99.90
52859;DHT22;38721;53.098;6.596;2023-03-01T01:10:48;-1.50;99.90
52859;DHT22;38721;53.098;6.596;2023-03-01T01:13:14;-1.70;99.90
52859;DHT22;38721;53.098;6.596;2023-03-01T01:15:40;-1.70;99.90
52859;DHT22;38721;53.098;6.596;2023-03-01T01:18:06;-1.60;99.90
52859;DHT22;38721;53.098;6.596;2023-03-01T01:20:32;-1.70;99.90
52859;DHT22;38721;53.098;6.596;2023-03-01T01:22:58;-1.70;99.90
52859;DHT22;38721;53.098;6.596;2023-03-01T01:25:23;-1.70;99.90
52859;DHT22;38721;53.098;6.596;2023-03-01T01:27:53;-1.70;99.90
52859;DHT22;38721;53.098;6.596;2023-03-01T01:30:19;-1.90;99.90
52859;DHT22;38721;53.098;6.596;2023-03-01T01:32:44;-1.90;99.90
52859;DHT22;38721;53.098;6.596;2023-03-01T01:35:10;-1.90;99.90
52859;DHT22;38721;53.098;6.596;2023-03-01T01:37:35;-2.00;99.90
52859;DHT22;38721;53.098;6.596;2023-03-01T01:40:01;-2.00;99.90
52859;DHT22;38721;53.098;6.596;2023-03-01T01:42:30;-2.00;99.90
52859;DHT22;38721;53.098;6.596;2023-03-01T01:47:50;-2.00;99.90
52859;DHT22;38721;53.098;6.596;2023-03-01T01:50:18;-2.00;99.90
52859;DHT22;38721;53.098;6.596;2023-03-01T01:52:45;-2.00;99.90
52859;DHT22;38721;53.098;6.596;2023-03-01T01:55:15;-2.10;99.90
52859;DHT22;38721;53.098;6.596;2023-03-01T01:57:43;-2.00;99.90
52859;DHT22;38721;53.098;6.596;2023-03-01T02:00:18;-2.10;99.90
52859;DHT22;38721;53.098;6.596;2023-03-01T02:02:46;-2.10;99.90
52859;DHT22;38721;53.098;6.596;2023-03-01T02:08:09;-2.10;99.90
52859;DHT22;38721;53.098;6.596;2023-03-01T02:10:35;-2.10;99.90
52859;DHT22;38721;53.098;6.596;2023-03-01T02:13:03;-2.10;99.90
52859;DHT22;38721;53.098;6.596;2023-03-01T02:15:35;-2.20;99.90
52859;DHT22;38721;53.098;6.596;2023-03-01T02:18:03;-2.20;99.90
52859;DHT22;38721;53.098;6.596;2023-03-01T02:23:14;-2.40;99.90
52859;DHT22;38721;53.098;6.596;2023-03-01T02:25:47;-2.40;99.90
52859;DHT22;38721;53.098;6.596;2023-03-01T02:30:49;-2.40;99.90
52859;DHT22;38721;53.098;6.596;2023-03-01T02:33:35;-2.30;99.90
52859;DHT22;38721;53.098;6.596;2023-03-01T02:36:08;-2.30;99.90
52859;DHT22;38721;53.098;6.596;2023-03-01T02:38:34;-2.40;99.90
52859;DHT22;38721;53.098;6.596;2023-03-01T02:41:02;-2.50;99.90
52859;DHT22;38721;53.098;6.596;2023-03-01T02:43:30;-2.50;99.90
52859;DHT22;38721;53.098;6.596;2023-03-01T02:46:13;-2.40;99.90
52859;DHT22;38721;53.098;6.596;2023-03-01T02:48:51;-2.60;99.90
52859;DHT22;38721;53.098;6.596;2023-03-01T02:54:28;-2.50;99.90
52859;DHT22;38721;53.098;6.596;2023-03-01T02:56:55;-2.70;99.90
52859;DHT22;38721;53.098;6.596;2023-03-01T02:59:24;-2.70;99.90
52859;DHT22;38721;53.098;6.596;2023-03-01T03:01:52;-2.80;99.90
52859;DHT22;38721;53.098;6.596;2023-03-01T03:04:18;-2.80;99.90
52859;DHT22;38721;53.098;6.596;2023-03-01T03:06:46;-2.80;99.90
52859;DHT22;38721;53.098;6.596;2023-03-01T03:09:13;-2.80;99.90
52859;DHT22;38721;53.098;6.596;2023-03-01T03:11:39;-2.80;99.90
52859;DHT22;38721;53.098;6.596;2023-03-01T03:14:07;-2.80;99.90
52859;DHT22;38721;53.098;6.596;2023-03-01T03:16:49;-2.80;99.90
52859;DHT22;38721;53.098;6.596;2023-03-01T03:19:16;-2.90;99.90
52859;DHT22;38721;53.098;6.596;2023-03-01T03:21:42;-2.90;99.90
52859;DHT22;38721;53.098;6.596;2023-03-01T03:24:08;-2.80;99.90
52859;DHT22;38721;53.098;6.596;2023-03-01T03:26:33;-2.80;99.90
52859;DHT22;38721;53.098;6.596;2023-03-01T03:28:59;-2.80;99.90
52859;DHT22;38721;53.098;6.596;2023-03-01T03:31:26;-2.90;99.90
52859;DHT22;38721;53.098;6.596;2023-03-01T03:33:52;-2.90;99.90
52859;DHT22;38721;53.098;6.596;2023-03-01T03:36:20;-2.90;99.90
52859;DHT22;38721;53.098;6.596;2023-03-01T03:38:46;-3.00;99.90
52859;DHT22;38721;53.098;6.596;2023-03-01T03:41:12;-3.10;99.90
52859;DHT22;38721;53.098;6.596;2023-03-01T03:43:39;-3.10;99.90
52859;DHT22;38721;53.098;6.596;2023-03-01T03:46:06;-3.10;99.90
52859;DHT22;38721;53.098;6.596;2023-03-01T03:48:43;-3.10;99.90
52859;DHT22;38721;53.098;6.596;2023-03-01T03:51:14;-3.20;99.90
52859;DHT22;38721;53.098;6.596;2023-03-01T03:53:40;-3.10;99.90
52859;DHT22;38721;53.098;6.596;2023-03-01T03:56:07;-3.20;99.90
52859;DHT22;38721;53.098;6.596;2023-03-01T03:58:32;-3.30;99.90
52859;DHT22;38721;53.098;6.596;2023-03-01T04:00:59;-3.30;99.90
52859;DHT22;38721;53.098;6.596;2023-03-01T04:03:27;-3.30;99.90
52859;DHT22;38721;53.098;6.596;2023-03-01T04:05:53;-3.30;99.90
52859;DHT22;38721;53.098;6.596;2023-03-01T04:08:20;-3.30;99.90
52859;DHT22;38721;53.098;6.596;2023-03-01T04:10:50;-3.30;99.90
52859;DHT22;38721;53.098;6.596;2023-03-01T04:13:19;-3.40;99.90
52859;DHT22;38721;53.098;6.596;2023-03-01T04:15:55;-3.40;99.90
52859;DHT22;38721;53.098;6.596;2023-03-01T04:18:22;-3.40;99.90
52859;DHT22;38721;53.098;6.596;2023-03-01T04:20:48;-3.30;99.90
52859;DHT22;38721;53.098;6.596;2023-03-01T04:23:19;-3.40;99.90
52859;DHT22;38721;53.098;6.596;2023-03-01T04:28:32;-3.50;99.90
52859;DHT22;38721;53.098;6.596;2023-03-01T04:31:03;-3.50;99.90
52859;DHT22;38721;53.098;6.596;2023-03-01T04:33:51;-3.50;99.90
52859;DHT22;38721;53.098;6.596;2023-03-01T04:36:19;-3.40;99.90
52859;DHT22;38721;53.098;6.596;2023-03-01T04:38:46;-3.50;99.90
52859;DHT22;38721;53.098;6.596;2023-03-01T04:41:14;-3.50;99.90
52859;DHT22;38721;53.098;6.596;2023-03-01T04:43:40;-3.50;99.90
52859;DHT22;38721;53.098;6.596;2023-03-01T04:46:09;-3.40;99.90
52859;DHT22;38721;53.098;6.596;2023-03-01T04:48:37;-3.50;99.90
52859;DHT22;38721;53.098;6.596;2023-03-01T04:51:04;-3.50;99.90
52859;DHT22;38721;53.098;6.596;2023-03-01T04:53:31;-3.60;99.90
52859;DHT22;38721;53.098;6.596;2023-03-01T04:55:58;-3.50;99.90
52859;DHT22;38721;53.098;6.596;2023-03-01T04:58:26;-3.60;99.90
52859;DHT22;38721;53.098;6.596;2023-03-01T05:00:52;-3.60;99.90
52859;DHT22;38721;53.098;6.596;2023-03-01T05:03:19;-3.60;99.90
52859;DHT22;38721;53.098;6.596;2023-03-01T05:05:47;-3.60;99.90
52859;DHT22;38721;53.098;6.596;2023-03-01T05:08:14;-3.60;99.90
52859;DHT22;38721;53.098;6.596;2023-03-01T05:10:45;-3.60;99.90
52859;DHT22;38721;53.098;6.596;2023-03-01T05:13:14;-3.70;99.90
52859;DHT22;38721;53.098;6.596;2023-03-01T05:15:47;-3.60;99.90
52859;DHT22;38721;53.098;6.596;2023-03-01T05:18:14;-3.60;99.90
52859;DHT22;38721;53.098;6.596;2023-03-01T05:20:39;-3.70;99.90
52859;DHT22;38721;53.098;6.596;2023-03-01T05:23:05;-3.70;99.90
52859;DHT22;38721;53.098;6.596;2023-03-01T05:25:33;-3.80;99.90
52859;DHT22;38721;53.098;6.596;2023-03-01T05:28:00;-3.80;99.90
52859;DHT22;38721;53.098;6.596;2023-03-01T05:30:33;-3.90;99.90
52859;DHT22;38721;53.098;6.596;2023-03-01T05:32:59;-3.80;99.90
52859;DHT22;38721;53.098;6.596;2023-03-01T05:35:25;-3.90;99.90
52859;DHT22;38721;53.098;6.596;2023-03-01T05:37:52;-3.90;99.90
52859;DHT22;38721;53.098;6.596;2023-03-01T05:40:20;-3.90;99.90
52859;DHT22;38721;53.098;6.596;2023-03-01T05:42:51;-4.00;99.90
52859;DHT22;38721;53.098;6.596;2023-03-01T05:45:17;-4.00;99.90
52859;DHT22;38721;53.098;6.596;2023-03-01T05:47:45;-4.00;99.90
52859;DHT22;38721;53.098;6.596;2023-03-01T05:50:22;-4.10;99.90
52859;DHT22;38721;53.098;6.596;2023-03-01T05:53:06;-4.00;99.90
52859;DHT22;38721;53.098;6.596;2023-03-01T05:55:34;-4.00;99.90
52859;DHT22;38721;53.098;6.596;2023-03-01T05:58:03;-4.00;99.90
52859;DHT22;38721;53.098;6.596;2023-03-01T06:00:29;-4.00;99.90
52859;DHT22;38721;53.098;6.596;2023-03-01T06:02:56;-4.10;99.90
52859;DHT22;38721;53.098;6.596;2023-03-01T06:05:23;-4.10;99.90
52859;DHT22;38721;53.098;6.596;2023-03-01T06:07:48;-4.10;99.90
52859;DHT22;38721;53.098;6.596;2023-03-01T06:10:17;-4.10;99.90
52859;DHT22;38721;53.098;6.596;2023-03-01T06:12:43;-4.10;99.90
52859;DHT22;38721;53.098;6.596;2023-03-01T06:15:11;-4.10;99.90
52859;DHT22;38721;53.098;6.596;2023-03-01T06:17:38;-4.00;99.90
52859;DHT22;38721;53.098;6.596;2023-03-01T06:20:08;-4.00;99.90
52859;DHT22;38721;53.098;6.596;2023-03-01T06:22:34;-4.00;99.90
52859;DHT22;38721;53.098;6.596;2023-03-01T06:25:00;-4.10;99.90
52859;DHT22;38721;53.098;6.596;2023-03-01T06:27:25;-4.00;99.90
52859;DHT22;38721;53.098;6.596;2023-03-01T06:29:51;-4.00;99.90
52859;DHT22;38721;53.098;6.596;2023-03-01T06:32:17;-4.10;99.90
52859;DHT22;38721;53.098;6.596;2023-03-01T06:34:42;-4.00;99.90
52859;DHT22;38721;53.098;6.596;2023-03-01T06:37:08;-4.00;99.90
52859;DHT22;38721;53.098;6.596;2023-03-01T06:39:34;-4.00;99.90
52859;DHT22;38721;53.098;6.596;2023-03-01T06:42:00;-3.90;99.90
52859;DHT22;38721;53.098;6.596;2023-03-01T06:44:26;-3.90;99.90
52859;DHT22;38721;53.098;6.596;2023-03-01T06:46:52;-3.90;99.90
52859;DHT22;38721;53.098;6.596;2023-03-01T06:49:17;-3.90;99.90
52859;DHT22;38721;53.098;6.596;2023-03-01T06:51:44;-3.80;99.90
52859;DHT22;38721;53.098;6.596;2023-03-01T06:54:10;-3.70;99.90
52859;DHT22;38721;53.098;6.596;2023-03-01T06:56:36;-3.70;99.90
52859;DHT22;38721;53.098;6.596;2023-03-01T06:59:02;-3.70;99.90
52859;DHT22;38721;53.098;6.596;2023-03-01T07:01:29;-3.60;99.90
52859;DHT22;38721;53.098;6.596;2023-03-01T07:03:57;-3.50;99.90
52859;DHT22;38721;53.098;6.596;2023-03-01T07:06:23;-3.50;99.90
52859;DHT22;38721;53.098;6.596;2023-03-01T07:08:49;-3.50;99.90
52859;DHT22;38721;53.098;6.596;2023-03-01T07:11:15;-3.40;99.90
52859;DHT22;38721;53.098;6.596;2023-03-01T07:13:41;-3.30;99.90
52859;DHT22;38721;53.098;6.596;2023-03-01T07:16:10;-3.30;99.90
52859;DHT22;38721;53.098;6.596;2023-03-01T07:18:36;-3.20;99.90
52859;DHT22;38721;53.098;6.596;2023-03-01T07:21:09;-3.10;99.90
52859;DHT22;38721;53.098;6.596;2023-03-01T07:23:36;-3.10;99.90
52859;DHT22;38721;53.098;6.596;2023-03-01T07:26:02;-2.90;99.90
52859;DHT22;38721;53.098;6.596;2023-03-01T07:28:28;-2.80;99.90
52859;DHT22;38721;53.098;6.596;2023-03-01T07:30:54;-2.80;99.90
52859;DHT22;38721;53.098;6.596;2023-03-01T07:33:20;-2.70;99.90
52859;DHT22;38721;53.098;6.596;2023-03-01T07:35:46;-2.50;99.90
52859;DHT22;38721;53.098;6.596;2023-03-01T07:38:11;-2.50;99.90
52859;DHT22;38721;53.098;6.596;2023-03-01T07:40:37;-2.30;99.90
52859;DHT22;38721;53.098;6.596;2023-03-01T07:43:03;-2.10;99.90
52859;DHT22;38721;53.098;6.596;2023-03-01T07:45:29;-2.00;99.90
52859;DHT22;38721;53.098;6.596;2023-03-01T07:47:55;-1.80;99.90
52859;DHT22;38721;53.098;6.596;2023-03-01T07:50:22;-1.80;99.90
52859;DHT22;38721;53.098;6.596;2023-03-01T07:52:49;-1.60;99.90
52859;DHT22;38721;53.098;6.596;2023-03-01T07:55:15;-1.50;99.90
52859;DHT22;38721;53.098;6.596;2023-03-01T07:57:42;-1.30;99.90
52859;DHT22;38721;53.098;6.596;2023-03-01T08:00:11;-1.20;99.90
52859;DHT22;38721;53.098;6.596;2023-03-01T08:02:40;-0.90;99.90
52859;DHT22;38721;53.098;6.596;2023-03-01T08:05:08;-0.80;99.90
52859;DHT22;38721;53.098;6.596;2023-03-01T08:07:34;-0.70;99.90
52859;DHT22;38721;53.098;6.596;2023-03-01T08:10:00;-0.50;99.90
52859;DHT22;38721;53.098;6.596;2023-03-01T08:12:26;-0.30;99.90
52859;DHT22;38721;53.098;6.596;2023-03-01T08:14:53;-0.10;99.90
52859;DHT22;38721;53.098;6.596;2023-03-01T08:17:19;0.00;99.90
52859;DHT22;38721;53.098;6.596;2023-03-01T08:19:45;0.00;99.90
52859;DHT22;38721;53.098;6.596;2023-03-01T08:22:10;0.10;99.90
52859;DHT22;38721;53.098;6.596;2023-03-01T08:24:36;0.20;99.90
52859;DHT22;38721;53.098;6.596;2023-03-01T08:27:02;0.20;99.90
52859;DHT22;38721;53.098;6.596;2023-03-01T08:29:30;0.30;99.90
52859;DHT22;38721;53.098;6.596;2023-03-01T08:31:57;0.40;99.90
52859;DHT22;38721;53.098;6.596;2023-03-01T08:34:22;0.50;99.90
52859;DHT22;38721;53.098;6.596;2023-03-01T08:36:48;0.60;99.90
52859;DHT22;38721;53.098;6.596;2023-03-01T08:39:17;0.80;99.90
52859;DHT22;38721;53.098;6.596;2023-03-01T08:41:47;0.80;99.90
52859;DHT22;38721;53.098;6.596;2023-03-01T08:44:14;0.90;99.90
52859;DHT22;38721;53.098;6.596;2023-03-01T08:46:45;1.00;99.90
52859;DHT22;38721;53.098;6.596;2023-03-01T08:49:13;1.00;99.90
52859;DHT22;38721;53.098;6.596;2023-03-01T08:51:41;1.30;99.90
52859;DHT22;38721;53.098;6.596;2023-03-01T08:54:20;1.20;99.90
52859;DHT22;38721;53.098;6.596;2023-03-01T08:59:35;1.60;99.90
52859;DHT22;38721;53.098;6.596;2023-03-01T09:02:05;1.80;99.90
52859;DHT22;38721;53.098;6.596;2023-03-01T09:04:31;1.90;99.90
52859;DHT22;38721;53.098;6.596;2023-03-01T09:06:58;1.90;99.90
52859;DHT22;38721;53.098;6.596;2023-03-01T09:09:27;2.10;99.90
52859;DHT22;38721;53.098;6.596;2023-03-01T09:11:52;2.30;99.90
52859;DHT22;38721;53.098;6.596;2023-03-01T09:14:18;2.20;99.90
52859;DHT22;38721;53.098;6.596;2023-03-01T09:16:47;2.30;99.90
52859;DHT22;38721;53.098;6.596;2023-03-01T09:19:13;2.30;99.90
52859;DHT22;38721;53.098;6.596;2023-03-01T09:21:39;2.50;99.90
52859;DHT22;38721;53.098;6.596;2023-03-01T09:24:06;2.60;99.90
52859;DHT22;38721;53.098;6.596;2023-03-01T09:26:32;2.80;99.90
52859;DHT22;38721;53.098;6.596;2023-03-01T09:28:58;2.90;99.90
52859;DHT22;38721;53.098;6.596;2023-03-01T09:31:24;3.10;99.90
52859;DHT22;38721;53.098;6.596;2023-03-01T09:33:52;3.20;99.90
52859;DHT22;38721;53.098;6.596;2023-03-01T09:36:22;3.10;99.90
52859;DHT22;38721;53.098;6.596;2023-03-01T09:38:48;3.20;99.90
52859;DHT22;38721;53.098;6.596;2023-03-01T09:43:52;3.60;99.90
52859;DHT22;38721;53.098;6.596;2023-03-01T09:46:21;3.70;99.90
52859;DHT22;38721;53.098;6.596;2023-03-01T09:49:04;4.00;99.90
52859;DHT22;38721;53.098;6.596;2023-03-01T09:51:34;4.00;99.90
52859;DHT22;38721;53.098;6.596;2023-03-01T09:54:04;4.10;99.90
52859;DHT22;38721;53.098;6.596;2023-03-01T09:56:41;4.20;99.90
52859;DHT22;38721;53.098;6.596;2023-03-01T10:04:57;4.50;99.90
52859;DHT22;38721;53.098;6.596;2023-03-01T10:07:53;4.70;99.90
52859;DHT22;38721;53.098;6.596;2023-03-01T10:10:33;4.80;99.90
52859;DHT22;38721;53.098;6.596;2023-03-01T10:15:56;5.00;99.90
52859;DHT22;38721;53.098;6.596;2023-03-01T10:18:26;5.00;99.90
52859;DHT22;38721;53.098;6.596;2023-03-01T10:20:58;5.20;99.90
52859;DHT22;38721;53.098;6.596;2023-03-01T10:23:25;5.20;99.90
52859;DHT22;38721;53.098;6.596;2023-03-01T10:29:01;5.30;99.90
52859;DHT22;38721;53.098;6.596;2023-03-01T10:36:39;5.60;99.90
52859;DHT22;38721;53.098;6.596;2023-03-01T10:39:13;5.60;1.00
52859;DHT22;38721;53.098;6.596;2023-03-01T10:41:57;5.60;99.90
52859;DHT22;38721;53.098;6.596;2023-03-01T10:44:53;5.90;99.90
52859;DHT22;38721;53.098;6.596;2023-03-01T10:47:20;6.00;99.90
52859;DHT22;38721;53.098;6.596;2023-03-01T10:52:32;6.30;24.40
52859;DHT22;38721;53.098;6.596;2023-03-01T10:57:35;6.30;99.90
52859;DHT22;38721;53.098;6.596;2023-03-01T11:00:21;6.30;99.90
52859;DHT22;38721;53.098;6.596;2023-03-01T11:02:50;6.60;1.00
52859;DHT22;38721;53.098;6.596;2023-03-01T11:05:20;6.50;99.90
52859;DHT22;38721;53.098;6.596;2023-03-01T11:10:27;6.70;1.00
52859;DHT22;38721;53.098;6.596;2023-03-01T11:12:53;6.80;1.00
52859;DHT22;38721;53.098;6.596;2023-03-01T11:15:27;6.90;1.00
52859;DHT22;38721;53.098;6.596;2023-03-01T11:17:55;7.00;1.00
52859;DHT22;38721;53.098;6.596;2023-03-01T11:20:29;7.10;1.00
52859;DHT22;38721;53.098;6.596;2023-03-01T11:23:10;7.20;99.90
52859;DHT22;38721;53.098;6.596;2023-03-01T11:25:40;7.00;99.90
52859;DHT22;38721;53.098;6.596;2023-03-01T11:28:10;7.20;1.00
52859;DHT22;38721;53.098;6.596;2023-03-01T11:36:32;7.50;73.10
52859;DHT22;38721;53.098;6.596;2023-03-01T11:41:40;7.50;99.90
52859;DHT22;38721;53.098;6.596;2023-03-01T11:44:27;7.40;1.00
52859;DHT22;38721;53.098;6.596;2023-03-01T11:47:24;7.30;1.00
52859;DHT22;38721;53.098;6.596;2023-03-01T11:50:11;7.60;1.00
52859;DHT22;38721;53.098;6.596;2023-03-01T11:52:55;7.60;99.90
52859;DHT22;38721;53.098;6.596;2023-03-01T11:55:52;7.80;99.90
52859;DHT22;38721;53.098;6.596;2023-03-01T11:58:37;7.90;99.90
52859;DHT22;38721;53.098;6.596;2023-03-01T12:06:59;8.00;99.90
52859;DHT22;38721;53.098;6.596;2023-03-01T12:15:26;8.20;99.90
52859;DHT22;38721;53.098;6.596;2023-03-01T12:18:16;8.40;99.90
52859;DHT22;38721;53.098;6.596;2023-03-01T12:39:58;9.30;1.00
52859;DHT22;38721;53.098;6.596;2023-03-01T12:42:36;9.10;99.90
52859;DHT22;38721;53.098;6.596;2023-03-01T12:45:46;9.20;99.90
52859;DHT22;38721;53.098;6.596;2023-03-01T12:50:50;9.30;99.90
52859;DHT22;38721;53.098;6.596;2023-03-01T12:53:46;9.60;99.90
52859;DHT22;38721;53.098;6.596;2023-03-01T12:56:19;9.80;99.90
52859;DHT22;38721;53.098;6.596;2023-03-01T13:12:00;9.80;99.90
52859;DHT22;38721;53.098;6.596;2023-03-01T13:16:52;9.90;99.90
52859;DHT22;38721;53.098;6.596;2023-03-01T13:19:26;9.70;78.30
52859;DHT22;38721;53.098;6.596;2023-03-01T13:21:54;10.10;99.90
52859;DHT22;38721;53.098;6.596;2023-03-01T13:24:24;10.10;87.50
52859;DHT22;38721;53.098;6.596;2023-03-01T13:27:09;10.10;95.70
52859;DHT22;38721;53.098;6.596;2023-03-01T13:32:30;10.10;10.80
52859;DHT22;38721;53.098;6.596;2023-03-01T13:37:52;10.20;1.00
52859;DHT22;38721;53.098;6.596;2023-03-01T13:42:50;10.30;1.00
52859;DHT22;38721;53.098;6.596;2023-03-01T13:45:21;10.30;1.00
52859;DHT22;38721;53.098;6.596;2023-03-01T13:47:50;10.40;1.00
52859;DHT22;38721;53.098;6.596;2023-03-01T13:50:29;10.40;1.00
52859;DHT22;38721;53.098;6.596;2023-03-01T13:53:02;10.70;1.00
52859;DHT22;38721;53.098;6.596;2023-03-01T13:55:42;10.70;1.00
52859;DHT22;38721;53.098;6.596;2023-03-01T13:58:31;10.60;1.00
52859;DHT22;38721;53.098;6.596;2023-03-01T14:01:06;10.90;1.00
52859;DHT22;38721;53.098;6.596;2023-03-01T14:03:39;11.10;1.00
52859;DHT22;38721;53.098;6.596;2023-03-01T14:06:06;11.30;1.00
52859;DHT22;38721;53.098;6.596;2023-03-01T14:08:34;11.40;1.00
52859;DHT22;38721;53.098;6.596;2023-03-01T14:11:35;11.30;1.00
52859;DHT22;38721;53.098;6.596;2023-03-01T14:14:14;10.90;99.90
52859;DHT22;38721;53.098;6.596;2023-03-01T14:17:32;11.80;1.00
52859;DHT22;38721;53.098;6.596;2023-03-01T14:19:57;12.90;1.00
52859;DHT22;38721;53.098;6.596;2023-03-01T14:22:24;13.20;1.00
52859;DHT22;38721;53.098;6.596;2023-03-01T14:27:38;14.20;1.00
52859;DHT22;38721;53.098;6.596;2023-03-01T14:32:42;14.80;99.90
52859;DHT22;38721;53.098;6.596;2023-03-01T14:35:28;14.90;99.90
52859;DHT22;38721;53.098;6.596;2023-03-01T14:37:54;15.30;99.90
52859;DHT22;38721;53.098;6.596;2023-03-01T14:40:29;15.40;99.90
52859;DHT22;38721;53.098;6.596;2023-03-01T14:42:59;15.40;99.90
52859;DHT22;38721;53.098;6.596;2023-03-01T14:45:28;15.50;99.90
52859;DHT22;38721;53.098;6.596;2023-03-01T14:47:55;15.50;99.90
52859;DHT22;38721;53.098;6.596;2023-03-01T14:50:32;15.50;99.90
52859;DHT22;38721;53.098;6.596;2023-03-01T14:53:03;15.90;99.90
52859;DHT22;38721;53.098;6.596;2023-03-01T14:55:38;16.10;99.90
52859;DHT22;38721;53.098;6.596;2023-03-01T14:58:12;16.20;99.90
52859;DHT22;38721;53.098;6.596;2023-03-01T15:00:39;16.40;99.90
52859;DHT22;38721;53.098;6.596;2023-03-01T15:03:23;16.20;99.90
52859;DHT22;38721;53.098;6.596;2023-03-01T15:05:49;16.40;51.50
52859;DHT22;38721;53.098;6.596;2023-03-01T15:08:24;15.30;1.00
52859;DHT22;38721;53.098;6.596;2023-03-01T15:11:23;15.00;1.00
52859;DHT22;38721;53.098;6.596;2023-03-01T15:13:51;13.90;99.90
52859;DHT22;38721;53.098;6.596;2023-03-01T15:16:19;13.50;99.90
52859;DHT22;38721;53.098;6.596;2023-03-01T15:18:51;13.20;99.90
52859;DHT22;38721;53.098;6.596;2023-03-01T15:21:25;13.00;99.90
52859;DHT22;38721;53.098;6.596;2023-03-01T15:24:17;13.10;99.90
52859;DHT22;38721;53.098;6.596;2023-03-01T15:26:51;12.80;99.90
52859;DHT22;38721;53.098;6.596;2023-03-01T15:29:26;12.60;99.90
52859;DHT22;38721;53.098;6.596;2023-03-01T15:32:06;12.90;99.90
52859;DHT22;38721;53.098;6.596;2023-03-01T15:34:35;13.20;99.90
52859;DHT22;38721;53.098;6.596;2023-03-01T15:37:04;14.40;99.90
52859;DHT22;38721;53.098;6.596;2023-03-01T15:42:17;15.20;99.90
52859;DHT22;38721;53.098;6.596;2023-03-01T15:45:10;15.50;99.90
52859;DHT22;38721;53.098;6.596;2023-03-01T15:47:39;16.60;99.90
52859;DHT22;38721;53.098;6.596;2023-03-01T15:50:19;16.60;99.90
52859;DHT22;38721;53.098;6.596;2023-03-01T15:52:46;16.50;99.90
52859;DHT22;38721;53.098;6.596;2023-03-01T15:55:27;15.90;99.90
52859;DHT22;38721;53.098;6.596;2023-03-01T15:58:13;16.50;99.90
52859;DHT22;38721;53.098;6.596;2023-03-01T16:00:39;16.80;99.90
52859;DHT22;38721;53.098;6.596;2023-03-01T16:03:05;16.70;99.90
52859;DHT22;38721;53.098;6.596;2023-03-01T16:05:34;16.30;99.90
52859;DHT22;38721;53.098;6.596;2023-03-01T16:08:00;16.20;99.90
52859;DHT22;38721;53.098;6.596;2023-03-01T16:10:27;16.20;99.90
52859;DHT22;38721;53.098;6.596;2023-03-01T16:12:56;15.50;99.90
52859;DHT22;38721;53.098;6.596;2023-03-01T16:15:29;15.40;99.90
52859;DHT22;38721;53.098;6.596;2023-03-01T16:17:55;14.90;99.90
52859;DHT22;38721;53.098;6.596;2023-03-01T16:20:24;14.70;99.90
52859;DHT22;38721;53.098;6.596;2023-03-01T16:22:50;14.80;99.90
52859;DHT22;38721;53.098;6.596;2023-03-01T16:25:18;14.30;99.90
52859;DHT22;38721;53.098;6.596;2023-03-01T16:27:45;14.10;99.90
52859;DHT22;38721;53.098;6.596;2023-03-01T16:30:20;13.50;58.40
52859;DHT22;38721;53.098;6.596;2023-03-01T16:32:47;12.30;1.00
52859;DHT22;38721;53.098;6.596;2023-03-01T16:35:15;11.70;1.00
52859;DHT22;38721;53.098;6.596;2023-03-01T16:37:44;10.70;1.00
52859;DHT22;38721;53.098;6.596;2023-03-01T16:40:30;10.40;1.00
52859;DHT22;38721;53.098;6.596;2023-03-01T16:42:57;9.70;1.00
52859;DHT22;38721;53.098;6.596;2023-03-01T16:45:27;9.60;44.00
52859;DHT22;38721;53.098;6.596;2023-03-01T16:47:52;9.30;83.20
52859;DHT22;38721;53.098;6.596;2023-03-01T16:50:19;9.00;99.90
52859;DHT22;38721;53.098;6.596;2023-03-01T16:52:44;8.80;99.90
52859;DHT22;38721;53.098;6.596;2023-03-01T16:55:10;8.50;99.90
52859;DHT22;38721;53.098;6.596;2023-03-01T16:57:38;8.20;99.90
52859;DHT22;38721;53.098;6.596;2023-03-01T17:00:05;7.90;99.90
52859;DHT22;38721;53.098;6.596;2023-03-01T17:02:33;7.70;99.90
52859;DHT22;38721;53.098;6.596;2023-03-01T17:05:00;7.50;99.90
52859;DHT22;38721;53.098;6.596;2023-03-01T17:07:25;7.40;99.90
52859;DHT22;38721;53.098;6.596;2023-03-01T17:09:51;7.10;99.90
52859;DHT22;38721;53.098;6.596;2023-03-01T17:12:17;7.00;99.90
52859;DHT22;38721;53.098;6.596;2023-03-01T17:14:42;6.80;1.00
52859;DHT22;38721;53.098;6.596;2023-03-01T17:17:09;6.60;1.00
52859;DHT22;38721;53.098;6.596;2023-03-01T17:19:36;6.40;14.90
52859;DHT22;38721;53.098;6.596;2023-03-01T17:22:06;6.30;99.90
52859;DHT22;38721;53.098;6.596;2023-03-01T17:24:34;6.30;99.90
52859;DHT22;38721;53.098;6.596;2023-03-01T17:26:59;6.10;99.90
52859;DHT22;38721;53.098;6.596;2023-03-01T17:29:25;5.90;99.90
52859;DHT22;38721;53.098;6.596;2023-03-01T17:31:51;5.80;99.90
52859;DHT22;38721;53.098;6.596;2023-03-01T17:34:19;5.70;99.90
52859;DHT22;38721;53.098;6.596;2023-03-01T17:36:45;5.70;1.00
52859;DHT22;38721;53.098;6.596;2023-03-01T17:39:12;5.60;1.00
52859;DHT22;38721;53.098;6.596;2023-03-01T17:41:38;5.50;99.90
52859;DHT22;38721;53.098;6.596;2023-03-01T17:44:03;5.50;99.90
52859;DHT22;38721;53.098;6.596;2023-03-01T17:46:29;5.50;99.90
52859;DHT22;38721;53.098;6.596;2023-03-01T17:48:55;5.50;1.00
52859;DHT22;38721;53.098;6.596;2023-03-01T17:51:21;5.50;99.90
52859;DHT22;38721;53.098;6.596;2023-03-01T17:53:46;5.40;99.90
52859;DHT22;38721;53.098;6.596;2023-03-01T17:56:12;5.30;99.90